Time;durP1;ratioP1;P1;durP2;ratioP2;P2;SDS_P1;SDS_P2;PMS_P1;PMS_P2;Temp;Humidity;BMP_temperature;BMP_pressure;BME280_temperature;BME280_humidity;BME280_pressure;Samples;Min_cycle;Max_cycle;Signal;HPM_P1;HPM_P2
2022/11/28 00:00:42;;;;;;;;;;;;;;;4.20;100.00;101357.62;5576129;31;34409;-73
2022/11/28 00:03:51;;;;;;;;;;;;;;;4.17;100.00;101347.31;5589818;31;35124;-74
2022/11/28 00:07:01;;;;;;;;;;;;;;;4.29;100.00;101353.53;5576817;31;34556;-73
2022/11/28 00:10:07;;;;;;;;;;;;;;;4.25;100.00;101362.56;5576205;31;34950;-74
2022/11/28 00:13:15;;;;;;;;;;;;;;;4.24;100.00;101364.34;5589669;31;34880;-73
2022/11/28 00:16:26;;;;;;;;;;;;;;;4.25;100.00;101365.19;5575384;31;34472;-72
2022/11/28 00:19:32;;;;;;;;;;;;;;;4.31;100.00;101362.13;5589607;31;34547;-73
2022/11/28 00:22:39;;;;;;;;;;;;;;;4.25;100.00;101355.53;5576360;31;34905;-73
2022/11/28 00:25:46;;;;;;;;;;;;;;;4.20;100.00;101367.28;5589542;31;34764;-73
2022/11/28 00:28:55;;;;;;;;;;;;;;;4.21;100.00;101354.03;5575354;31;35654;-73
2022/11/28 00:32:02;;;;;;;;;;;;;;;4.25;100.00;101358.16;5588236;31;34621;-72
2022/11/28 00:35:08;;;;;;;;;;;;;;;4.20;100.00;101356.78;5589483;31;34584;-72
2022/11/28 00:38:16;;;;;;;;;;;;;;;4.17;100.00;101367.47;5575182;31;34468;-73
2022/11/28 00:41:25;;;;;;;;;;;;;;;4.15;100.00;101364.97;5575907;31;34595;-73
2022/11/28 00:44:31;;;;;;;;;;;;;;;4.29;100.00;101371.94;5589358;31;35120;-73
2022/11/28 00:47:38;;;;;;;;;;;;;;;4.23;100.00;101367.91;5589260;31;34482;-73
2022/11/28 00:50:45;;;;;;;;;;;;;;;4.28;100.00;101362.34;5589023;31;34488;-73
2022/11/28 00:53:54;;;;;;;;;;;;;;;4.27;100.00;101365.91;5575204;31;34702;-72
2022/11/28 00:57:02;;;;;;;;;;;;;;;4.24;100.00;101360.88;5589036;31;35169;-73
2022/11/28 01:00:08;;;;;;;;;;;;;;;4.37;100.00;101364.34;5588973;31;34373;-73
2022/11/28 01:03:13;;;;;;;;;;;;;;;4.27;100.00;101372.03;5588810;31;34421;-73
2022/11/28 01:06:22;;;;;;;;;;;;;;;4.31;100.00;101372.66;5574771;31;35920;-74
2022/11/28 01:09:29;;;;;;;;;;;;;;;4.38;100.00;101379.19;5588968;31;35307;-73
2022/11/28 01:12:37;;;;;;;;;;;;;;;4.37;100.00;101367.00;5588618;31;35150;-73
2022/11/28 01:15:45;;;;;;;;;;;;;;;4.28;100.00;101362.34;5588621;31;34509;-73
2022/11/28 01:18:54;;;;;;;;;;;;;;;4.28;100.00;101359.72;5588660;31;34535;-73
2022/11/28 01:22:02;;;;;;;;;;;;;;;4.25;100.00;101352.06;5588503;31;35077;-74
2022/11/28 01:25:10;;;;;;;;;;;;;;;4.26;100.00;101359.00;5588553;31;34531;-73
2022/11/28 01:28:18;;;;;;;;;;;;;;;4.28;100.00;101362.34;5588373;31;34446;-73
2022/11/28 01:31:28;;;;;;;;;;;;;;;4.31;100.00;101357.72;5588433;31;35170;-73
2022/11/28 01:34:35;;;;;;;;;;;;;;;4.29;100.00;101359.63;5588334;31;34581;-73
2022/11/28 01:37:45;;;;;;;;;;;;;;;4.26;100.00;101353.75;5588289;31;34427;-73
2022/11/28 01:40:51;;;;;;;;;;;;;;;4.35;100.00;101351.34;5588295;31;34472;-73
2022/11/28 01:44:02;;;;;;;;;;;;;;;4.43;100.00;101342.09;5576842;31;35057;-73
2022/11/28 01:47:07;;;;;;;;;;;;;;;4.27;100.00;101347.53;5577689;31;35218;-73
2022/11/28 01:50:14;;;;;;;;;;;;;;;4.18;100.00;101337.66;5577680;31;34406;-72
2022/11/28 01:53:20;;;;;;;;;;;;;;;4.16;100.00;101331.69;5590965;31;34604;-73
2022/11/28 01:56:30;;;;;;;;;;;;;;;4.11;100.00;101325.91;5577201;31;33744;-73
2022/11/28 01:59:40;;;;;;;;;;;;;;;4.10;100.00;101316.34;5591119;31;34642;-73
2022/11/28 02:02:50;;;;;;;;;;;;;;;4.18;100.00;101312.25;5590892;31;34521;-73
2022/11/28 02:05:59;;;;;;;;;;;;;;;4.17;100.00;101315.81;5590773;31;34415;-73
2022/11/28 02:09:09;;;;;;;;;;;;;;;4.27;100.00;101313.38;5590826;31;35077;-73
2022/11/28 02:12:26;;;;;;;;;;;;;;;4.21;100.00;101311.22;5577684;31;34532;-72
2022/11/28 02:15:33;;;;;;;;;;;;;;;4.13;100.00;101300.38;5576835;31;34709;-73
2022/11/28 02:18:44;;;;;;;;;;;;;;;4.23;100.00;101302.25;5590664;31;35203;-74
2022/11/28 02:22:21;;;;;;;;;;;;;;;4.27;100.00;101302.88;5590661;31;35056;-73
2022/11/28 02:25:45;;;;;;;;;;;;;;;4.18;100.00;101299.09;5590567;31;33764;-73
2022/11/28 02:29:11;;;;;;;;;;;;;;;4.16;100.00;101293.12;5590567;31;34551;-73
2022/11/28 02:32:36;;;;;;;;;;;;;;;4.27;100.00;101295.84;5590602;31;34947;-73
2022/11/28 02:35:48;;;;;;;;;;;;;;;4.20;100.00;101291.13;5577141;31;34380;-73
2022/11/28 02:39:08;;;;;;;;;;;;;;;4.24;100.00;101289.97;5590551;31;35122;-73
2022/11/28 02:42:23;;;;;;;;;;;;;;;4.19;100.00;101292.91;5590575;31;34491;-73
2022/11/28 02:45:36;;;;;;;;;;;;;;;4.10;100.00;101285.66;5590553;31;34532;-73
2022/11/28 02:48:48;;;;;;;;;;;;;;;4.16;100.00;101273.91;5576946;31;35071;-73
2022/11/28 02:52:09;;;;;;;;;;;;;;;4.19;100.00;101279.78;5590432;31;34514;-74
2022/11/28 02:55:15;;;;;;;;;;;;;;;4.18;100.00;101280.72;5589841;31;34837;-73
2022/11/28 02:58:21;;;;;;;;;;;;;;;4.12;100.00;101275.88;5590355;31;34941;-73
2022/11/28 03:01:33;;;;;;;;;;;;;;;4.11;100.00;101276.84;5590406;31;35113;-73
2022/11/28 03:04:56;;;;;;;;;;;;;;;4.13;100.00;101269.69;5590647;31;34519;-73
2022/11/28 03:08:08;;;;;;;;;;;;;;;4.14;100.00;101276.63;5590861;31;35061;-73
2022/11/28 03:11:16;;;;;;;;;;;;;;;4.22;100.00;101269.06;5590245;31;35223;-73
2022/11/28 03:14:48;;;;;;;;;;;;;;;4.37;100.00;101269.78;5590285;31;35039;-73
2022/11/28 03:18:05;;;;;;;;;;;;;;;4.29;100.00;101270.34;5569452;32;35446;-73
2022/11/28 03:21:12;;;;;;;;;;;;;;;4.23;100.00;101269.91;5570574;32;34517;-73
2022/11/28 03:24:26;;;;;;;;;;;;;;;4.23;100.00;101265.50;5570523;32;34944;-74
2022/11/28 03:27:45;;;;;;;;;;;;;;;4.25;100.00;101268.03;5570498;32;34494;-73
2022/11/28 03:30:54;;;;;;;;;;;;;;;4.18;100.00;101262.34;5570472;32;34478;-73
2022/11/28 03:34:00;;;;;;;;;;;;;;;4.17;100.00;101255.41;5569765;32;34451;-73
2022/11/28 03:37:15;;;;;;;;;;;;;;;4.10;100.00;101248.91;5570513;32;35156;-73
2022/11/28 03:40:30;;;;;;;;;;;;;;;4.10;100.00;101242.81;5569775;32;34519;-73
2022/11/28 03:43:40;;;;;;;;;;;;;;;4.14;100.00;101239.03;5570316;32;35055;-73
2022/11/28 03:46:50;;;;;;;;;;;;;;;4.10;100.00;101227.06;5570389;32;34473;-73
2022/11/28 03:49:59;;;;;;;;;;;;;;;4.10;100.00;101227.06;5570398;32;34580;-73
2022/11/28 03:53:08;;;;;;;;;;;;;;;4.14;100.00;101215.38;5569387;32;34177;-72
2022/11/28 03:56:22;;;;;;;;;;;;;;;4.13;100.00;101209.28;5570227;32;35083;-73
2022/11/28 03:59:32;;;;;;;;;;;;;;;4.15;100.00;101196.06;5570101;32;35129;-73
2022/11/28 04:02:40;;;;;;;;;;;;;;;4.23;100.00;101204.25;5570098;32;34437;-73
2022/11/28 04:05:52;;;;;;;;;;;;;;;4.17;100.00;101205.50;5569865;32;34557;-73
2022/11/28 04:09:03;;;;;;;;;;;;;;;4.15;100.00;101202.16;5570161;32;34614;-73
2022/11/28 04:12:51;;;;;;;;;;;;;;;4.13;100.00;101192.69;5570210;32;35052;-73
2022/11/28 04:16:06;;;;;;;;;;;;;;;4.12;100.00;101196.25;5478750;32;35174;-73
2022/11/28 04:19:15;;;;;;;;;;;;;;;4.03;100.00;101197.75;5491076;32;34815;-73
2022/11/28 04:22:30;;;;;;;;;;;;;;;3.95;100.00;101200.06;5478648;32;34888;-73
2022/11/28 04:25:39;;;;;;;;;;;;;;;3.93;100.00;101199.31;5478067;32;33710;-73
2022/11/28 04:28:48;;;;;;;;;;;;;;;3.89;100.00;101192.59;5490767;32;34254;-73
2022/11/28 04:31:57;;;;;;;;;;;;;;;3.83;100.00;101193.03;5490841;32;34498;-73
2022/11/28 04:35:19;;;;;;;;;;;;;;;3.79;100.00;101186.31;5490870;32;34574;-73
2022/11/28 04:38:28;;;;;;;;;;;;;;;3.78;100.00;101188.09;5490725;32;35115;-73
2022/11/28 04:41:38;;;;;;;;;;;;;;;3.93;100.00;101183.56;5490766;32;35082;-74
2022/11/28 04:44:52;;;;;;;;;;;;;;;3.85;100.00;101191.16;5490631;32;34665;-73
2022/11/28 04:48:00;;;;;;;;;;;;;;;3.84;100.00;101192.94;5490551;32;34764;-73
2022/11/28 04:51:12;;;;;;;;;;;;;;;3.80;100.00;101193.25;5567282;32;34578;-73
2022/11/28 04:54:32;;;;;;;;;;;;;;;3.82;100.00;101196.63;5569523;32;35144;-73
2022/11/28 04:57:39;;;;;;;;;;;;;;;3.76;100.00;101191.78;5569455;32;34586;-74
2022/11/28 05:00:45;;;;;;;;;;;;;;;3.80;100.00;101185.38;5569719;32;35085;-73
2022/11/28 05:03:55;;;;;;;;;;;;;;;3.74;100.00;101183.16;5568785;32;35030;-73
2022/11/28 05:07:04;;;;;;;;;;;;;;;3.64;100.00;101188.19;5569235;32;34639;-74
2022/11/28 05:10:12;;;;;;;;;;;;;;;3.67;100.00;101189.78;5569547;32;35249;-73
2022/11/28 05:13:20;;;;;;;;;;;;;;;3.68;100.00;101189.66;5569250;32;34531;-74
2022/11/28 05:16:28;;;;;;;;;;;;;;;3.65;100.00;101194.28;5571280;31;35151;-74
2022/11/28 05:19:31;;;;;;;;;;;;;;;3.63;100.00;101190.94;5591511;31;34611;-73
2022/11/28 05:22:35;;;;;;;;;;;;;;;3.63;100.00;101197.00;5591228;31;34360;-74
2022/11/28 05:25:41;;;;;;;;;;;;;;;3.71;100.00;101199.13;5591181;31;34751;-74
2022/11/28 05:28:48;;;;;;;;;;;;;;;3.75;100.00;101190.09;5590982;31;34631;-73
2022/11/28 05:31:54;;;;;;;;;;;;;;;3.61;100.00;101196.28;5590822;31;34491;-73
2022/11/28 05:35:00;;;;;;;;;;;;;;;3.58;100.00;101195.66;5564722;31;36692;-74
2022/11/28 05:38:05;;;;;;;;;;;;;;;3.57;100.00;101197.44;5591009;31;34417;-73
2022/11/28 05:41:20;;;;;;;;;;;;;;;3.59;100.00;101206.03;5590975;31;34518;-73
2022/11/28 05:44:26;;;;;;;;;;;;;;;3.62;100.00;101205.00;5590953;31;34787;-73
2022/11/28 05:47:32;;;;;;;;;;;;;;;3.60;100.00;101215.56;5590989;31;35074;-74
2022/11/28 05:50:39;;;;;;;;;;;;;;;3.68;100.00;101215.09;5591038;31;34442;-74
2022/11/28 05:53:46;;;;;;;;;;;;;;;3.70;100.00;101219.28;5590571;31;35092;-74
2022/11/28 05:56:51;;;;;;;;;;;;;;;3.78;100.00;101219.59;5577322;31;34361;-73
2022/11/28 05:59:57;;;;;;;;;;;;;;;3.71;100.00;101220.97;5590765;31;34835;-73
2022/11/28 06:03:02;;;;;;;;;;;;;;;3.76;100.00;101221.50;5590717;31;34625;-74
2022/11/28 06:06:12;;;;;;;;;;;;;;;3.84;100.00;101219.16;5590576;31;34577;-73
2022/11/28 06:09:17;;;;;;;;;;;;;;;3.83;100.00;101219.28;5590754;31;34425;-73
2022/11/28 06:12:28;;;;;;;;;;;;;;;3.71;100.00;101222.75;5576672;31;34499;-73
2022/11/28 06:15:32;;;;;;;;;;;;;;;3.71;100.00;101223.59;5590654;31;34627;-74
2022/11/28 06:18:40;;;;;;;;;;;;;;;3.68;100.00;101217.72;5576649;31;35426;-72
2022/11/28 06:21:45;;;;;;;;;;;;;;;3.77;100.00;101215.31;5590550;31;34599;-74
2022/11/28 06:24:48;;;;;;;;;;;;;;;3.72;100.00;101224.44;5590212;31;35186;-73
2022/11/28 06:27:51;;;;;;;;;;;;;;;3.69;100.00;101217.59;5589792;31;35062;-74
2022/11/28 06:30:55;;;;;;;;;;;;;;;3.68;100.00;101213.28;5590280;31;34429;-74
2022/11/28 06:34:01;;;;;;;;;;;;;;;3.66;100.00;101220.44;5590202;31;35004;-73
2022/11/28 06:37:05;;;;;;;;;;;;;;;3.69;100.00;101214.97;5590265;31;34565;-73
2022/11/28 06:40:08;;;;;;;;;;;;;;;3.74;100.00;101223.37;5590281;31;35136;-73
2022/11/28 06:43:12;;;;;;;;;;;;;;;3.71;100.00;101225.34;5575912;31;35616;-72
2022/11/28 06:46:16;;;;;;;;;;;;;;;3.71;100.00;101231.44;5590139;31;34818;-73
2022/11/28 06:49:19;;;;;;;;;;;;;;;3.77;100.00;101232.84;5590186;31;34599;-73
2022/11/28 06:52:21;;;;;;;;;;;;;;;3.77;100.00;101235.44;5590067;31;35136;-73
2022/11/28 06:55:24;;;;;;;;;;;;;;;3.73;100.00;101233.94;5589972;31;34582;-73
2022/11/28 06:58:27;;;;;;;;;;;;;;;3.63;100.00;101246.84;5589546;31;34370;-73
2022/11/28 07:01:33;;;;;;;;;;;;;;;3.69;100.00;101248.22;5576033;31;35449;-74
2022/11/28 07:04:36;;;;;;;;;;;;;;;3.59;100.00;101250.63;5588577;31;34571;-73
2022/11/28 07:07:39;;;;;;;;;;;;;;;3.73;100.00;101249.69;5589908;31;34613;-73
2022/11/28 07:10:56;;;;;;;;;;;;;;;3.84;100.00;101236.69;5590481;31;35015;-73
2022/11/28 07:14:00;;;;;;;;;;;;;;;3.86;100.00;101237.44;5590392;31;34394;-73
2022/11/28 07:17:03;;;;;;;;;;;;;;;3.91;100.00;101237.97;5589772;31;34466;-72
2022/11/28 07:20:07;;;;;;;;;;;;;;;3.96;100.00;101240.28;5575832;31;33187;-73
2022/11/28 07:23:11;;;;;;;;;;;;;;;3.99;100.00;101234.81;5575673;31;34398;-73
2022/11/28 07:26:15;;;;;;;;;;;;;;;4.14;100.00;101239.03;5589904;31;34709;-73
2022/11/28 07:29:17;;;;;;;;;;;;;;;4.11;100.00;101231.38;5575337;31;35450;-73
2022/11/28 07:32:20;;;;;;;;;;;;;;;4.10;100.00;101232.31;5589950;31;34726;-73
2022/11/28 07:35:23;;;;;;;;;;;;;;;4.33;100.00;101236.81;5575939;31;34666;-73
2022/11/28 07:38:27;;;;;;;;;;;;;;;4.18;100.00;101236.06;5589808;31;35200;-73
2022/11/28 07:41:30;;;;;;;;;;;;;;;4.27;100.00;101231.97;5575564;31;33824;-73
2022/11/28 07:44:35;;;;;;;;;;;;;;;4.08;100.00;101227.16;5589702;31;34610;-72
2022/11/28 07:47:39;;;;;;;;;;;;;;;4.01;100.00;101222.44;5589668;31;35152;-73
2022/11/28 07:50:49;;;;;;;;;;;;;;;4.09;100.00;101220.13;5589534;31;34541;-73
2022/11/28 07:53:52;;;;;;;;;;;;;;;4.32;100.00;101207.06;5589376;31;35231;-73
2022/11/28 07:56:56;;;;;;;;;;;;;;;4.64;100.00;101215.31;5589629;31;34448;-73
2022/11/28 08:00:15;;;;;;;;;;;;;;;4.56;100.00;101211.53;5575559;31;34591;-72
2022/11/28 08:03:19;;;;;;;;;;;;;;;4.66;100.00;101215.19;5589332;31;35146;-73
2022/11/28 08:06:23;;;;;;;;;;;;;;;4.85;100.00;101214.69;5589571;31;34508;-73
2022/11/28 08:09:27;;;;;;;;;;;;;;;4.64;100.00;101202.19;5589954;31;34791;-72
2022/11/28 08:12:29;;;;;;;;;;;;;;;4.53;100.00;101211.75;5562961;31;32434;-73
2022/11/28 08:15:32;;;;;;;;;;;;;;;4.45;100.00;101204.44;5589565;31;34465;-73
2022/11/28 08:18:35;;;;;;;;;;;;;;;4.54;100.00;101209.03;5562651;31;35866;-72
2022/11/28 08:21:38;;;;;;;;;;;;;;;4.42;100.00;101204.62;5589431;31;34929;-72
2022/11/28 08:24:40;;;;;;;;;;;;;;;4.54;100.00;101200.31;5589462;31;34308;-72
2022/11/28 08:27:44;;;;;;;;;;;;;;;4.57;100.00;101208.81;5589189;31;34543;-72
2022/11/28 08:30:48;;;;;;;;;;;;;;;4.81;100.00;101211.47;5575358;31;35454;-74
2022/11/28 08:33:52;;;;;;;;;;;;;;;4.88;100.00;101214.50;5562410;31;34091;-72
2022/11/28 08:36:55;;;;;;;;;;;;;;;5.04;100.00;101221.16;5589232;31;34427;-73
2022/11/28 08:40:00;;;;;;;;;;;;;;;5.33;100.00;101226.06;5575330;31;35502;-72
2022/11/28 08:43:04;;;;;;;;;;;;;;;5.12;100.00;101228.50;5589130;31;34931;-73
2022/11/28 08:46:09;;;;;;;;;;;;;;;4.52;100.00;101228.47;5588736;31;35152;-72
2022/11/28 08:49:12;;;;;;;;;;;;;;;4.37;100.00;101235.62;5588907;31;35117;-71
2022/11/28 08:52:15;;;;;;;;;;;;;;;4.61;100.00;101225.19;5587719;31;34994;-72
2022/11/28 08:55:17;;;;;;;;;;;;;;;4.76;100.00;101232.81;5588728;31;34385;-72
2022/11/28 08:58:26;;;;;;;;;;;;;;;4.93;100.00;101226.37;5589294;31;34441;-71
2022/11/28 09:01:29;;;;;;;;;;;;;;;4.71;100.00;101227.06;5588753;31;35042;-71
2022/11/28 09:04:32;;;;;;;;;;;;;;;4.73;100.00;101225.16;5574830;31;34847;-73
2022/11/28 09:07:35;;;;;;;;;;;;;;;4.85;100.00;101225.22;5588480;31;34594;-72
2022/11/28 09:10:39;;;;;;;;;;;;;;;4.74;100.00;101221.56;5588415;31;34408;-72
2022/11/28 09:13:42;;;;;;;;;;;;;;;4.59;100.00;101222.69;5588561;31;35216;-72
2022/11/28 09:16:46;;;;;;;;;;;;;;;4.51;100.00;101216.28;5588227;31;34961;-72
2022/11/28 09:19:50;;;;;;;;;;;;;;;4.59;100.00;101208.72;5574845;31;35163;-72
2022/11/28 09:22:53;;;;;;;;;;;;;;;4.51;100.00;101217.13;5588437;31;34595;-72
2022/11/28 09:25:55;;;;;;;;;;;;;;;4.52;100.00;101210.91;5588208;31;34456;-72
2022/11/28 09:28:58;;;;;;;;;;;;;;;4.47;100.00;101204.31;5588198;31;34507;-73
2022/11/28 09:32:01;;;;;;;;;;;;;;;4.68;100.00;101203.63;5588129;31;34573;-72
2022/11/28 09:35:04;;;;;;;;;;;;;;;4.43;100.00;101208.09;5574497;31;34570;-72
2022/11/28 09:38:07;;;;;;;;;;;;;;;4.45;100.00;101203.59;5588022;31;34611;-70
2022/11/28 09:41:19;;;;;;;;;;;;;;;4.43;100.00;101197.59;5574360;31;34495;-72
2022/11/28 09:44:28;;;;;;;;;;;;;;;4.60;100.00;101194.62;5587910;31;35180;-71
2022/11/28 09:47:35;;;;;;;;;;;;;;;4.97;100.00;101191.00;5588029;31;34799;-71
2022/11/28 09:50:40;;;;;;;;;;;;;;;4.78;100.00;101178.38;5587780;31;34537;-72
2022/11/28 09:53:49;;;;;;;;;;;;;;;4.74;100.00;101183.97;5587790;31;34619;-72
2022/11/28 09:56:52;;;;;;;;;;;;;;;4.75;100.00;101175.94;5587111;31;35112;-72
2022/11/28 09:59:55;;;;;;;;;;;;;;;4.89;100.00;101179.37;5587604;31;34477;-72
2022/11/28 10:02:58;;;;;;;;;;;;;;;4.53;100.00;101169.72;5574599;31;32894;-72
2022/11/28 10:06:11;;;;;;;;;;;;;;;4.48;100.00;101170.06;5590513;31;35195;-71
2022/11/28 10:09:14;;;;;;;;;;;;;;;4.66;100.00;101166.09;5590461;31;35089;-71
2022/11/28 10:12:30;;;;;;;;;;;;;;;4.43;100.00;101168.69;5590401;31;35207;-72
2022/11/28 10:15:36;;;;;;;;;;;;;;;4.32;100.00;101162.41;5576273;31;34509;-72
2022/11/28 10:18:46;;;;;;;;;;;;;;;4.54;100.00;101163.53;5590364;31;35029;-72
2022/11/28 10:21:51;;;;;;;;;;;;;;;4.49;100.00;101160.38;5590836;31;35002;-72
2022/11/28 10:25:03;;;;;;;;;;;;;;;4.71;100.00;101157.88;5590749;31;34520;-73
2022/11/28 10:28:10;;;;;;;;;;;;;;;4.93;100.00;101154.53;5590423;31;34561;-73
2022/11/28 10:31:16;;;;;;;;;;;;;;;4.87;100.00;101154.97;5590282;31;35102;-73
2022/11/28 10:34:31;;;;;;;;;;;;;;;4.93;100.00;101150.12;5590154;31;35054;-72
2022/11/28 10:37:35;;;;;;;;;;;;;;;5.06;100.00;101147.41;5590728;31;35221;-72
2022/11/28 10:40:49;;;;;;;;;;;;;;;4.89;100.00;101147.81;5577106;31;34566;-73
2022/11/28 10:43:55;;;;;;;;;;;;;;;4.73;100.00;101143.69;5575863;31;35178;-73
2022/11/28 10:46:57;;;;;;;;;;;;;;;4.99;100.00;101140.91;5576557;31;34533;-73
2022/11/28 10:50:13;;;;;;;;;;;;;;;4.84;100.00;101135.03;5590604;31;35141;-72
2022/11/28 10:53:18;;;;;;;;;;;;;;;4.88;100.00;101123.31;5576266;31;34344;-71
2022/11/28 10:56:43;;;;;;;;;;;;;;;4.50;100.00;101122.66;5576071;31;34799;-71
2022/11/28 10:59:46;;;;;;;;;;;;;;;4.78;100.00;101125.78;5590234;31;34512;-71
2022/11/28 11:02:53;;;;;;;;;;;;;;;4.73;100.00;101120.03;5590448;31;34345;-72
2022/11/28 11:05:57;;;;;;;;;;;;;;;4.75;100.00;101112.00;5589956;31;35177;-72
2022/11/28 11:09:01;;;;;;;;;;;;;;;4.56;100.00;101119.56;5590420;31;34504;-72
2022/11/28 11:12:09;;;;;;;;;;;;;;;4.28;100.00;101118.94;5590501;31;34549;-71
2022/11/28 11:15:15;;;;;;;;;;;;;;;4.58;100.00;101115.06;5589062;31;34534;-71
2022/11/28 11:18:26;;;;;;;;;;;;;;;4.50;100.00;101114.78;5589722;31;34575;-71
2022/11/28 11:21:30;;;;;;;;;;;;;;;4.29;100.00;101107.47;5589996;31;34724;-71
2022/11/28 11:24:34;;;;;;;;;;;;;;;4.43;100.00;101106.50;5589607;31;34568;-72
2022/11/28 11:28:08;;;;;;;;;;;;;;;4.35;100.00;101107.06;5576445;31;34849;-71
2022/11/28 11:31:23;;;;;;;;;;;;;;;4.18;100.00;101106.56;5577344;31;35277;-71
2022/11/28 11:34:26;;;;;;;;;;;;;;;4.23;100.00;101107.06;5589824;31;34604;-72
2022/11/28 11:37:32;;;;;;;;;;;;;;;4.48;100.00;101103.53;5562768;31;35309;-71
2022/11/28 11:40:35;;;;;;;;;;;;;;;4.48;100.00;101107.00;5589541;31;35313;-72
2022/11/28 11:43:37;;;;;;;;;;;;;;;4.72;100.00;101093.84;5589686;31;34575;-71
2022/11/28 11:46:49;;;;;;;;;;;;;;;4.76;100.00;101100.56;5575982;31;34545;-71
2022/11/28 11:50:00;;;;;;;;;;;;;;;4.72;100.00;101105.19;5589624;31;34532;-72
2022/11/28 11:53:10;;;;;;;;;;;;;;;4.81;100.00;101098.44;5590186;31;35112;-71
2022/11/28 11:56:13;;;;;;;;;;;;;;;4.79;100.00;101106.41;5575879;31;34044;-72
2022/11/28 11:59:22;;;;;;;;;;;;;;;4.78;100.00;101098.66;5589770;31;35286;-71
2022/11/28 12:02:31;;;;;;;;;;;;;;;4.76;100.00;101098.75;5589808;31;34511;-72
2022/11/28 12:05:48;;;;;;;;;;;;;;;4.69;100.00;101094.94;5589488;31;34748;-72
2022/11/28 12:09:39;;;;;;;;;;;;;;;4.65;100.00;101093.44;5589442;31;34403;-72
2022/11/28 12:12:42;;;;;;;;;;;;;;;4.63;100.00;101089.28;5576357;31;35044;-72
2022/11/28 12:16:03;;;;;;;;;;;;;;;4.72;100.00;101089.44;5551015;31;849859;-71
2022/11/28 12:19:06;;;;;;;;;;;;;;;4.70;100.00;101086.06;5589484;31;34828;-71
2022/11/28 12:22:29;;;;;;;;;;;;;;;4.56;100.00;101081.00;5575611;31;34287;-71
2022/11/28 12:25:34;;;;;;;;;;;;;;;4.64;100.00;101080.44;5564699;31;34576;-71
2022/11/28 12:28:37;;;;;;;;;;;;;;;4.66;100.00;101083.78;5589288;31;34577;-71
2022/11/28 12:32:02;;;;;;;;;;;;;;;4.63;100.00;101076.97;5575612;31;34863;-71
2022/11/28 12:35:08;;;;;;;;;;;;;;;4.53;100.00;101075.97;5589357;31;35068;-72
2022/11/28 12:38:13;;;;;;;;;;;;;;;4.55;100.00;101073.25;5575542;31;34436;-71
2022/11/28 12:41:28;;;;;;;;;;;;;;;4.51;100.00;101069.97;5575179;31;33257;-72
2022/11/28 12:44:34;;;;;;;;;;;;;;;4.51;100.00;101058.62;5589238;31;35148;-72
2022/11/28 12:47:55;;;;;;;;;;;;;;;4.48;100.00;101067.59;5589072;31;35226;-72
2022/11/28 12:51:09;;;;;;;;;;;;;;;4.66;100.00;101068.00;5562170;31;34238;-72
2022/11/28 12:54:12;;;;;;;;;;;;;;;4.69;100.00;101073.06;5589254;31;35219;-71
2022/11/28 12:57:25;;;;;;;;;;;;;;;4.79;100.00;101063.53;5575187;31;34497;-72
2022/11/28 13:00:28;;;;;;;;;;;;;;;4.80;100.00;101063.41;5575416;31;35143;-72
2022/11/28 13:04:03;;;;;;;;;;;;;;;4.75;100.00;101059.44;5574830;31;35022;-71
2022/11/28 13:07:35;;;;;;;;;;;;;;;4.90;100.00;101055.69;5554409;31;35156;-72
2022/11/28 13:10:40;;;;;;;;;;;;;;;5.00;100.00;101051.41;5533064;31;35068;-72
2022/11/28 13:13:43;;;;;;;;;;;;;;;5.01;100.00;101047.81;5588647;31;35041;-72
2022/11/28 13:16:51;;;;;;;;;;;;;;;4.97;100.00;101053.44;5588402;31;35290;-71
2022/11/28 13:19:56;;;;;;;;;;;;;;;4.94;100.00;101054.50;5574844;31;34473;-72
2022/11/28 13:23:14;;;;;;;;;;;;;;;5.11;100.00;101046.19;5588426;31;34986;-73
2022/11/28 13:26:36;;;;;;;;;;;;;;;5.25;100.00;101045.12;5588484;31;35083;-72
2022/11/28 13:29:44;;;;;;;;;;;;;;;5.13;100.00;101035.56;5574288;31;34027;-71
2022/11/28 13:32:47;;;;;;;;;;;;;;;4.93;100.00;101042.31;5574442;31;34582;-72
2022/11/28 13:35:50;;;;;;;;;;;;;;;5.08;100.00;101041.13;5588351;31;35154;-71
2022/11/28 13:38:58;;;;;;;;;;;;;;;5.25;100.00;101038.06;5576339;31;34892;-72
2022/11/28 13:42:30;;;;;;;;;;;;;;;5.14;100.00;101032.78;5590850;31;34627;-72
2022/11/28 13:45:53;;;;;;;;;;;;;;;5.09;100.00;101034.09;5576788;31;34494;-72
2022/11/28 13:48:58;;;;;;;;;;;;;;;5.06;100.00;101034.34;5590806;31;35139;-71
2022/11/28 13:52:16;;;;;;;;;;;;;;;5.12;100.00;101031.25;5578918;31;35012;-72
2022/11/28 13:55:38;;;;;;;;;;;;;;;5.06;100.00;101040.44;5590643;31;34872;-71
2022/11/28 13:58:47;;;;;;;;;;;;;;;4.96;100.00;101044.72;5577184;31;35077;-71
2022/11/28 14:01:55;;;;;;;;;;;;;;;4.84;100.00;101048.28;5576961;31;34499;-71
2022/11/28 14:04:58;;;;;;;;;;;;;;;4.87;100.00;101044.56;5590811;31;35032;-71
2022/11/28 14:08:02;;;;;;;;;;;;;;;4.71;100.00;101042.22;5590652;31;34592;-72
2022/11/28 14:11:24;;;;;;;;;;;;;;;4.56;100.00;101033.69;5564036;31;34190;-72
2022/11/28 14:14:48;;;;;;;;;;;;;;;4.60;100.00;101026.44;5590503;31;34535;-71
2022/11/28 14:18:09;;;;;;;;;;;;;;;4.54;100.00;101024.25;5590691;31;34587;-72
2022/11/28 14:21:42;;;;;;;;;;;;;;;4.46;100.00;101016.94;5566099;31;33708;-72
2022/11/28 14:24:54;;;;;;;;;;;;;;;4.33;100.00;101024.03;5590466;31;34500;-72
2022/11/28 14:28:00;;;;;;;;;;;;;;;4.28;100.00;101024.38;5590382;31;34570;-72
2022/11/28 14:31:04;;;;;;;;;;;;;;;4.12;100.00;101022.97;5590525;31;34939;-72
2022/11/28 14:34:27;;;;;;;;;;;;;;;4.04;100.00;101022.69;5590559;31;34796;-72
2022/11/28 14:37:32;;;;;;;;;;;;;;;4.08;100.00;101018.88;5590155;31;35159;-71
2022/11/28 14:40:58;;;;;;;;;;;;;;;3.99;100.00;101019.56;5576124;31;34804;-71
2022/11/28 14:44:20;;;;;;;;;;;;;;;3.82;100.00;101018.16;5590293;31;35055;-71
2022/11/28 14:47:25;;;;;;;;;;;;;;;3.74;100.00;101009.97;5589836;31;34640;-72
2022/11/28 14:50:36;;;;;;;;;;;;;;;3.62;100.00;101013.47;5588783;31;35219;-72
2022/11/28 14:53:47;;;;;;;;;;;;;;;3.58;100.00;101012.00;5590265;31;34721;-71
2022/11/28 14:56:50;;;;;;;;;;;;;;;3.41;100.00;101018.41;5576897;31;34622;-71
2022/11/28 15:00:15;;;;;;;;;;;;;;;3.27;100.00;101016.75;5589945;31;34576;-72
2022/11/28 15:03:21;;;;;;;;;;;;;;;3.14;100.00;101012.47;5589948;31;34951;-71
2022/11/28 15:06:31;;;;;;;;;;;;;;;2.96;100.00;101004.06;5589980;31;34545;-71
2022/11/28 15:09:41;;;;;;;;;;;;;;;2.89;100.00;101008.88;5590196;31;35106;-71
2022/11/28 15:12:51;;;;;;;;;;;;;;;2.85;100.00;101001.34;5590295;31;35186;-71
2022/11/28 15:15:55;;;;;;;;;;;;;;;2.78;100.00;101018.41;5576070;31;34470;-71
2022/11/28 15:19:05;;;;;;;;;;;;;;;2.71;100.00;101012.72;5589417;31;34539;-71
2022/11/28 15:22:27;;;;;;;;;;;;;;;2.63;100.00;101022.88;5589752;31;35202;-71
2022/11/28 15:25:36;;;;;;;;;;;;;;;2.50;100.00;101020.22;5575310;31;35271;-71
2022/11/28 15:28:40;;;;;;;;;;;;;;;2.44;100.00;101025.88;5589653;31;35158;-71
2022/11/28 15:31:49;;;;;;;;;;;;;;;2.29;100.00;101039.09;5575500;31;34962;-71
2022/11/28 15:34:57;;;;;;;;;;;;;;;2.12;100.00;101032.34;5589740;31;34687;-71
2022/11/28 15:38:00;;;;;;;;;;;;;;;1.99;100.00;101026.19;5589698;31;34370;-71
2022/11/28 15:41:04;;;;;;;;;;;;;;;2.01;100.00;101035.66;5574938;31;35219;-71
2022/11/28 15:44:13;;;;;;;;;;;;;;;1.96;100.00;101031.62;5589156;31;34707;-70
2022/11/28 15:47:19;;;;;;;;;;;;;;;1.98;100.00;101038.47;5576130;31;34413;-71
2022/11/28 15:50:30;;;;;;;;;;;;;;;1.93;100.00;101030.06;5589334;31;34497;-71
2022/11/28 15:53:42;;;;;;;;;;;;;;;2.00;100.00;101033.13;5588682;31;34824;-71
2022/11/28 15:56:57;;;;;;;;;;;;;;;1.89;100.00;101039.03;5575538;31;34903;-71
2022/11/28 16:00:03;;;;;;;;;;;;;;;1.88;100.00;101042.59;5586829;31;35113;-70
2022/11/28 16:03:16;;;;;;;;;;;;;;;1.80;100.00;101038.75;5588797;31;34512;-70
2022/11/28 16:06:23;;;;;;;;;;;;;;;1.68;100.00;101038.59;5574737;31;33312;-72
2022/11/28 16:09:31;;;;;;;;;;;;;;;1.75;100.00;101044.28;5589353;31;34779;-71